Park Place, South Carolina
Current Conditions -  °F | °C
As of 8:53 PM on Monday 20 Oct 2014 (Local Time) from KGMU Reporting Station
Few Clouds Few Clouds  
Wind Chill: 62°   Ceiling: Unl
Heat Index: 62°   Visibility: 10mi
Dew Point: 50°   Wind: 5mph
Humidity: 65%   Direction: 200°SSW
Pressure: 30"   Gusts: NA
Location:  34.903°N, 82.4092°W
Report Text: KGMU 210053Z 20004KT 10SM FEW120 17/10 A3000 RMK AO2 SLP157 T01670100
Loading
Personal Weather Stations






























Interactive Weather Map
Tropical Storm Tracking
New forecast layout! Learn more

10-Day Weather Forecast

Advertisements
Track Severe Weather on mobile